• Join FlightAware (Why Join?)
  • Login
  • US Flag 
02:56AM EDT


 

Airport Tracker/Info


-or-


 

Live Flight TrackerFlight Track Log ✈ JBU1371 ✈ 23-Jul-2013 ✈ KLGA - KFLL

Flight Track Log - Related Links

Times and Time Zones

All times are in EDT time to prevent confusion due to time zone crossing. See the JBU1371 flight status page for this flight to view local times or setup timezone preferences in your user account.

Time Position Orientation Groundspeed Altitude Reporting Facility
EDT Latitude Longitude Course Direction KTS MPH feet Rate Location/Type
10:48PM 40.7750 -73.8780 239° Southwest 33 38  Level FlightAware
10:48PM 40.7720 -73.8800 207° Southwest 32 37 60 Level FlightAware
10:51PM 40.5675 -73.9662 201° Southwest  Level FlightAware Approximate
10:52PM 40.4752 -74.0041 201° Southwest  Level FlightAware Approximate
10:52PM 40.7990 -73.8600 201° Southwest 153 176 500  Level FlightAware
10:53PM 40.8100 -73.8670 334° Northwest 162 186 2,000 3,660 Climbing FlightAware
10:53PM 40.8340 -73.8720 351° North 190 219 2,900 1,920 Climbing FlightAware
10:53PM 40.8600 -73.8800 347° North 231 266 3,800 2,400 Climbing FlightAware
10:54PM 40.8921 -73.8894 348° North 264 304 5,100 3,120 Climbing FlightAware ADS-B
10:54PM 40.9109 -73.9023 333° Northwest 267 307 6,100 3,420 Climbing FlightAware ADS-B
10:54PM 40.9145 -73.9072 314° West 273 314 6,300 3,000 Climbing FlightAware ADS-B
10:54PM 40.9183 -73.9141 306° West 274 315 6,600 3,000 Climbing FlightAware ADS-B
10:54PM 40.9208 -73.9201 299° West 273 314 6,800 1,980 Climbing FlightAware ADS-B
10:55PM 40.9230 -73.9281 290° West 273 314 6,900 1,500 Climbing FlightAware ADS-B
10:55PM 40.9240 -73.9338 283° West 274 315 7,000 1,260 Climbing FlightAware ADS-B
10:55PM 40.9226 -73.9598 266° West 273 314 7,300 720 Climbing FlightAware ADS-B
10:55PM 40.9175 -73.9738 244° Southwest 276 318 7,300  Level FlightAware ADS-B
10:55PM 40.9024 -73.9918 222° Southwest 283 326 7,300  Level FlightAware ADS-B
10:55PM 40.8976 -73.9952 208° Southwest 284 327 7,300  Level FlightAware ADS-B
10:56PM 40.8801 -74.0059 205° Southwest 285 328 7,300 180 Level FlightAware ADS-B
10:56PM 40.8608 -74.0172 204° Southwest 287 330 7,400 1,020 Climbing FlightAware ADS-B
10:56PM 40.8388 -74.0302 204° Southwest 290 334 7,900 2,640 Climbing FlightAware ADS-B
10:56PM 40.8172 -74.0431 204° Southwest 290 334 9,000 3,900 Climbing FlightAware ADS-B
10:57PM 40.7804 -74.0652 204° Southwest 278 320 11,100 4,020 Climbing FlightAware ADS-B
10:57PM 40.7764 -74.0676 204° Southwest 278 320 11,300 2,040 Climbing FlightAware ADS-B
10:58PM 40.7378 -74.0897 203° Southwest 283 326 12,300 1,800 Climbing FlightAware ADS-B
10:58PM 40.7368 -74.0903 204° Southwest 284 327 12,300  Level FlightAware ADS-B
10:58PM 40.6996 -74.1115 203° Southwest 286 329 12,300  Level FlightAware ADS-B
10:58PM 40.6943 -74.1145 203° Southwest 286 329 12,300  Level FlightAware ADS-B
10:58PM 40.6731 -74.1279 206° Southwest 285 328 12,300  Level FlightAware ADS-B
10:58PM 40.6720 -74.1289 215° Southwest 286 329 12,300 960 Level FlightAware ADS-B
10:59PM 40.6664 -74.1345 217° Southwest 288 331 12,400 2,400 Climbing FlightAware ADS-B
10:59PM 40.6398 -74.1673 223° Southwest 297 342 13,600 2,760 Climbing FlightAware ADS-B
10:59PM 40.6349 -74.1735 224° Southwest 295 339 13,900 3,480 Climbing FlightAware ADS-B
10:59PM 40.6098 -74.2064 225° Southwest 293 337 15,400 3,360 Climbing FlightAware ADS-B
11:00PM 40.6059 -74.2115 225° Southwest 293 337 15,600 2,880 Climbing FlightAware ADS-B
11:00PM 40.5843 -74.2401 225° Southwest 295 339 16,700 3,000 Climbing FlightAware ADS-B
11:00PM 40.5827 -74.2420 222° Southwest 296 341 16,800 1,800 Climbing FlightAware ADS-B
11:00PM 40.5729 -74.2510 215° Southwest 300 345 17,000 1,560 Climbing FlightAware ADS-B
11:00PM 40.5648 -74.2559 205° Southwest 301 346 17,200 1,080 Climbing FlightAware ADS-B
11:00PM 40.5589 -74.2584 198° South 305 351 17,200 540 Level FlightAware ADS-B
11:00PM 40.5495 -74.2608 191° South 310 357 17,300 480 Climbing FlightAware ADS-B
11:00PM 40.5421 -74.2614 184° South 312 359 17,300  Level FlightAware ADS-B
11:01PM 40.5321 -74.2617 181° South 312 359 17,300  Level FlightAware ADS-B
11:01PM 40.4946 -74.2611 179° South 315 362 17,300  Level FlightAware ADS-B
11:01PM 40.4820 -74.2607 179° South 317 365 17,300  Level FlightAware ADS-B
11:02PM 40.4376 -74.2596 179° South 319 367 17,300  Level FlightAware ADS-B
11:02PM 40.3931 -74.2587 179° South 319 367 17,300  Level FlightAware ADS-B
11:03PM 40.3443 -74.2577 179° South 318 366 17,300  Level FlightAware ADS-B
11:03PM 40.2975 -74.2569 179° South 339 390 17,300  Level FlightAware ADS-B
11:04PM 40.2497 -74.2560 179° South 346 398 17,300  Level FlightAware ADS-B
11:04PM 40.1982 -74.2550 179° South 344 396 17,300  Level FlightAware ADS-B
11:05PM 40.1490 -74.2540 179° South 344 396 17,300 720 Level FlightAware ADS-B
11:05PM 40.0848 -74.2529 179° South 355 409 18,200 2,040 Climbing FlightAware ADS-B
11:06PM 40.0334 -74.2520 179° South 350 403 19,800 2,820 Climbing FlightAware ADS-B
11:06PM 40.0204 -74.2531 184° South 350 403 20,100 2,220 Climbing FlightAware ADS-B
11:06PM 40.0075 -74.2569 193° South 349 402 20,400 1,980 Climbing FlightAware ADS-B
11:06PM 39.9972 -74.2623 202° Southwest 344 396 20,600 1,800 Climbing FlightAware ADS-B
11:07PM 39.9552 -74.2994 214° Southwest 347 399 21,600 1,860 Climbing FlightAware ADS-B
11:07PM 39.9138 -74.3396 217° Southwest 359 413 22,600 1,860 Climbing FlightAware ADS-B
11:08PM 39.8659 -74.3857 216° Southwest 368 423 23,700 1,680 Climbing FlightAware ADS-B
11:08PM 39.8264 -74.4242 217° Southwest 375 432 24,400 1,560 Climbing FlightAware ADS-B
11:09PM 39.8097 -74.4427 220° Southwest 378 435 24,800 1,680 Climbing FlightAware ADS-B
11:09PM 39.7946 -74.4614 224° Southwest 379 436 25,100 2,040 Climbing FlightAware ADS-B
11:09PM 39.7564 -74.5132 226° Southwest 379 436 26,300 2,280 Climbing FlightAware ADS-B
11:10PM 39.7480 -74.5261 230° Southwest 371 427 26,600 2,100 Climbing FlightAware ADS-B
11:10PM 39.7152 -74.5778 230° Southwest 370 426 27,600 1,260 Climbing FlightAware ADS-B
11:11PM 39.6810 -74.6315 230° Southwest 387 445 27,900 360 Climbing FlightAware ADS-B
11:11PM 39.6463 -74.6864 231° Southwest 390 449 28,000 360 Climbing FlightAware ADS-B
11:12PM 39.6118 -74.7412 231° Southwest 399 459 28,300 660 Climbing FlightAware ADS-B
11:12PM 39.5761 -74.7978 231° Southwest 409 471 28,700 1,020 Climbing FlightAware ADS-B
11:13PM 39.5448 -74.8474 231° Southwest 415 478 29,300 1,200 Climbing FlightAware ADS-B
11:13PM 39.5138 -74.8947 230° Southwest 425 489 29,700 1,020 Climbing FlightAware ADS-B
11:13PM 39.5070 -74.9038 226° Southwest 428 493 29,800 780 Climbing FlightAware ADS-B
11:13PM 39.4927 -74.9197 221° Southwest 433 498 29,900 900 Climbing FlightAware ADS-B
11:13PM 39.4866 -74.9253 215° Southwest 436 502 30,000 1,200 Climbing FlightAware ADS-B
11:14PM 39.4315 -74.9623 207° Southwest 445 512 30,600 1,860 Climbing FlightAware ADS-B
11:14PM 39.3761 -74.9961 205° Southwest 433 498 31,900 1,800 Climbing FlightAware ADS-B
11:15PM 39.3214 -75.0298 205° Southwest 439 505 32,400 1,380 Climbing FlightAware ADS-B
11:15PM 39.2665 -75.0633 205° Southwest 437 503 33,300 1,860 Climbing FlightAware ADS-B
11:15PM 39.2453 -75.0741 202° Southwest 437 503 33,700 1,860 Climbing FlightAware ADS-B
11:16PM 39.2251 -75.0822 197° South 439 505 34,000 1,260 Climbing FlightAware ADS-B
11:16PM 39.1907 -75.0938 195° South 441 507 34,300 1,320 Climbing FlightAware ADS-B
11:16PM 39.1306 -75.1134 194° South 438 504 35,100 1,200 Climbing FlightAware ADS-B
11:17PM 39.0507 -75.1399 194° South 440 506 35,800 1,260 Climbing FlightAware ADS-B
11:18PM 38.9904 -75.1610 195° South 436 502 36,600 1,440 Climbing FlightAware ADS-B
11:18PM 38.9299 -75.1832 196° South 434 499 37,300 1,200 Climbing FlightAware ADS-B
11:19PM 38.8718 -75.2042 196° South 429 494 37,900 660 Climbing FlightAware ADS-B
11:19PM 38.8134 -75.2249 195° South 429 494 38,000 120 Climbing FlightAware ADS-B
11:19PM 38.7919 -75.2336 198° South 428 493 38,000  Level FlightAware ADS-B
11:20PM 38.7693 -75.2460 203° Southwest 428 493 38,000  Level FlightAware ADS-B
11:20PM 38.7140 -75.2810 206° Southwest 426 490 38,000  Level FlightAware
11:20PM 38.6954 -75.2932 207° Southwest 430 495 38,000  Level FlightAware ADS-B
11:21PM 38.6415 -75.3275 206° Southwest 436 502 38,000  Level FlightAware ADS-B
11:21PM 38.5869 -75.3620 206° Southwest 436 502 38,000  Level FlightAware ADS-B
11:22PM 38.5261 -75.4003 206° Southwest 436 502 38,000  Level FlightAware ADS-B
11:22PM 38.4606 -75.4415 206° Southwest 438 504 38,000  Level FlightAware ADS-B
11:23PM 38.4005 -75.4792 206° Southwest 440 506 38,000  Level FlightAware ADS-B
11:23PM 38.3455 -75.5138 206° Southwest 440 506 38,000  Level FlightAware ADS-B
11:24PM 38.2904 -75.5482 206° Southwest 441 507 38,000  Level FlightAware ADS-B
11:24PM 38.2337 -75.5836 206° Southwest 440 506 38,000 60 Level FlightAware ADS-B
11:25PM 38.1760 -75.6196 206° Southwest 438 504 38,100 60 Climbing FlightAware ADS-B
11:25PM 38.1212 -75.6538 206° Southwest 436 502 38,100 -120 Level FlightAware ADS-B
11:26PM 38.0666 -75.6877 206° Southwest 434 499 38,000 -120 Descending FlightAware ADS-B
11:27PM 38.0121 -75.7215 206° Southwest 432 497 38,000  Level FlightAware ADS-B
11:27PM 37.9547 -75.7570 206° Southwest 432 497 38,000  Level FlightAware ADS-B
11:28PM 37.8940 -75.7946 206° Southwest 433 498 38,000  Level FlightAware ADS-B
11:28PM 37.8028 -75.8509 206° Southwest 435 501 38,000  Level FlightAware ADS-B
11:29PM 37.7477 -75.8848 206° Southwest 435 501 38,000  Level FlightAware ADS-B
11:29PM 37.6923 -75.9188 206° Southwest 437 503 38,000  Level FlightAware ADS-B
11:30PM 37.6366 -75.9530 206° Southwest 438 504 38,000  Level FlightAware ADS-B
11:30PM 37.5792 -75.9883 206° Southwest 439 505 38,000  Level FlightAware ADS-B
11:31PM 37.4880 -76.0440 206° Southwest 432 497 38,000  Level FlightAware
11:32PM 37.4053 -76.0943 206° Southwest 440 506 38,000  Level FlightAware ADS-B
11:33PM 37.3473 -76.1298 206° Southwest 445 512 38,000  Level FlightAware ADS-B
11:33PM 37.2892 -76.1650 206° Southwest 448 516 38,000  Level FlightAware ADS-B
11:34PM 37.2329 -76.1991 206° Southwest 449 517 38,000  Level FlightAware ADS-B
11:34PM 37.1738 -76.2348 206° Southwest 449 517 38,000  Level FlightAware ADS-B
11:35PM 37.1174 -76.2688 206° Southwest 448 516 38,000  Level FlightAware ADS-B
11:35PM 37.0614 -76.3026 206° Southwest 449 517 38,000  Level FlightAware ADS-B
11:36PM 37.0024 -76.3381 206° Southwest 447 514 38,000  Level FlightAware ADS-B
11:36PM 36.9416 -76.3746 206° Southwest 446 513 38,000  Level FlightAware ADS-B
11:37PM 36.9046 -76.3963 205° Southwest 447 514 38,000  Level FlightAware ADS-B
11:37PM 36.8940 -76.4016 202° Southwest 448 516 38,000  Level FlightAware ADS-B
11:37PM 36.8288 -76.4297 199° South 448 516 38,000  Level FlightAware ADS-B
11:38PM 36.7701 -76.4548 199° South 447 514 38,000  Level FlightAware ADS-B
11:38PM 36.7103 -76.4806 199° South 448 516 38,000  Level FlightAware ADS-B
11:39PM 36.6298 -76.5155 199° South 448 516 38,000  Level FlightAware ADS-B
11:39PM 36.5680 -76.5422 199° South 448 516 38,000  Level FlightAware ADS-B
11:41PM 36.4440 -76.5960 199° South 445 512 38,000  Level FlightAware
11:41PM 36.3640 -76.6300 199° South 443 510 38,000  Level FlightAware
11:42PM 36.2780 -76.6670 199° South 443 510 38,000  Level FlightAware
11:43PM 36.2000 -76.7000 199° South 442 509 38,000  Level FlightAware
11:43PM 36.1120 -76.7370 199° South 443 510 38,000  Level FlightAware
11:44PM 36.0350 -76.7700 199° South 446 513 38,000  Level FlightAware
11:45PM 35.9230 -76.8180 199° South 443 510 38,000  Level FlightAware
11:46PM 35.8330 -76.8560 199° South 444 511 38,000  Level FlightAware
11:46PM 35.7740 -76.8810 199° South 444 511 38,000  Level FlightAware
11:47PM 35.6940 -76.9150 199° South 444 511 38,000  Level FlightAware
11:48PM 35.6350 -76.9400 199° South 444 511 38,000  Level FlightAware
11:48PM 35.5750 -76.9650 199° South 444 511 38,000  Level FlightAware
11:49PM 35.4960 -76.9990 199° South 444 511 38,000  Level FlightAware
11:50PM 35.4370 -77.0240 199° South 444 511 38,000  Level FlightAware
11:50PM 35.3770 -77.0490 199° South 444 511 38,000  Level FlightAware
11:51PM 35.2980 -77.0820 199° South 444 511 38,000  Level FlightAware
11:52PM 35.2390 -77.1070 199° South 444 511 38,000  Level FlightAware
11:53PM 35.1580 -77.1420 199° South 444 511 38,000  Level FlightAware
11:53PM 35.0980 -77.1670 199° South 444 511 38,000  Level FlightAware
11:54PM 35.0190 -77.2000 199° South 444 511 38,000  Level FlightAware
11:55PM 34.9580 -77.2260 199° South 444 511 38,000  Level FlightAware
11:55PM 34.8990 -77.2510 199° South 444 511 38,000  Level FlightAware
12:01AM 33.9920 -77.6150 198° South 457 526 38,100  Climbing FlightAware
12:02AM 33.9110 -77.6480 199° South 457 526 38,100 -120 Level FlightAware
12:02AM 33.9010 -77.6520 198° South 456 525 38,000 -120 Descending FlightAware
12:03AM 33.7450 -77.7150 199° South 459 528 38,000  Level FlightAware
12:04AM 33.6620 -77.7480 198° South 460 529 38,000  Level FlightAware
12:05AM 33.5910 -77.7760 198° South 460 529 38,000  Level FlightAware
12:05AM 33.5290 -77.8000 198° South 460 529 38,000  Level FlightAware
12:06AM 33.4260 -77.8400 198° South 460 529 38,000  Level FlightAware
12:07AM 33.3640 -77.8640 198° South 460 529 38,000  Level FlightAware
12:08AM 33.1280 -77.9600 199° South 461 531 38,000  Level FlightAware
12:09AM 33.0160 -78.0040 198° South 461 531 38,000  Level FlightAware
12:10AM 32.9540 -78.0280 198° South 461 531 38,000  Level FlightAware
12:11AM 32.8520 -78.0690 199° South 465 535 38,000  Level FlightAware
12:11AM 32.7600 -78.1040 198° South 466 536 38,000  Level FlightAware
12:12AM 32.6770 -78.1370 199° South 467 537 38,000  Level FlightAware
12:13AM 32.5860 -78.1720 198° South 467 537 38,000  Level FlightAware
12:14AM 32.4920 -78.2090 198° South 467 537 38,000  Level FlightAware
12:14AM 32.4080 -78.2420 198° South 468 539 38,000 60 Level FlightAware
12:15AM 32.3180 -78.2760 198° South 466 536 38,100  Climbing FlightAware
12:16AM 32.2120 -78.3170 198° South 464 534 38,000 -120 Descending FlightAware
12:16AM 32.1480 -78.3420 198° South 464 534 38,000  Level FlightAware
12:17AM 32.0840 -78.3670 198° South 464 534 38,000  Level FlightAware
12:18AM 31.9570 -78.4160 198° South 460 529 38,000  Level FlightAware
12:19AM 31.8770 -78.4460 198° South 458 527 38,000  Level FlightAware
12:19AM 31.8140 -78.4710 199° South 458 527 38,000  Level FlightAware
12:20AM 31.7420 -78.4980 198° South 458 527 38,000  Level FlightAware
12:20AM 31.6800 -78.5220 198° South 458 527 38,000  Level FlightAware
12:21AM 31.5980 -78.5530 198° South 458 527 38,000  Level FlightAware
12:22AM 31.5140 -78.5850 198° South 458 527 38,000  Level FlightAware
12:23AM 31.4520 -78.6080 198° South 458 527 38,000  Level FlightAware
12:23AM 31.3700 -78.6400 198° South 458 527 38,000  Level FlightAware
12:24AM 31.3090 -78.6630 198° South 458 527 38,000  Level FlightAware
12:25AM 31.2260 -78.6940 198° South 458 527 38,000  Level FlightAware
12:25AM 31.1650 -78.7180 199° South 458 527 38,000  Level FlightAware
12:26AM 31.0820 -78.7490 198° South 458 527 38,000  Level FlightAware
12:27AM 31.0210 -78.7720 198° South 458 527 38,000  Level FlightAware
12:27AM 30.9590 -78.7960 198° South 458 527 38,000  Level FlightAware
12:29AM 30.6489 -78.9086 198° South 458 527 38,000 -60 Level Jacksonville Center
12:30AM 30.5233 -78.9597 199° South 415 478 37,900 -60 Descending Miami Center
12:31AM 30.3978 -79.0006 196° South 430 495 37,900  Level Miami Center
12:32AM 30.2847 -79.0319 193° South 441 507 37,900  Level Miami Center
12:33AM 30.1569 -79.0653 193° South 446 513 38,000  Climbing Miami Center
12:34AM 30.0336 -79.0961 192° South 451 519 38,000  Level Miami Center
12:35AM 29.9183 -79.1275 193° South 444 511 38,000  Level Miami Center
12:36AM 29.7969 -79.1583 192° South 444 511 38,000  Level Miami Center
12:37AM 29.6775 -79.1964 195° South 444 511 38,000  Level Miami Center
12:38AM 29.5558 -79.2319 194° South 451 519 38,000  Level Miami Center
12:39AM 29.4406 -79.2722 197° South 451 519 38,000  Level Miami Center
12:40AM 29.3189 -79.3053 193° South 451 519 38,000  Level Miami Center
12:41AM 29.1953 -79.3406 194° South 451 519 38,000  Level Miami Center
12:42AM 29.0778 -79.3806 197° South 451 519 38,000  Level Miami Center
12:43AM 28.9539 -79.4206 196° South 456 525 38,000  Level Miami Center
12:49AM 28.2330 -79.7100 196° South 448 516 38,000  Level FlightAware
12:50AM 28.1220 -79.7770 208° Southwest 449 517 38,000  Level FlightAware
12:51AM 28.0310 -79.8380 211° Southwest 448 516 38,000  Level FlightAware
12:51AM 27.9650 -79.8770 208° Southwest 449 517 38,000 -540 Level FlightAware
12:52AM 27.8770 -79.9180 202° Southwest 448 516 37,300 -720 Descending FlightAware
12:53AM 27.7560 -79.9650 199° South 458 527 36,700 -360 Descending FlightAware
12:54AM 27.6950 -79.9890 199° South 458 527 36,700  Level FlightAware
12:55AM 27.5710 -80.0370 199° South 458 527 36,700 -4,560 Level FlightAware
12:56AM 27.4220 -80.0180 174° South 26,600 -8,340 Descending FlightAware
12:57AM 27.3200 -79.9980 170° South 439 505 24,400 -2,760 Descending FlightAware
12:57AM 27.2400 -79.9820 170° South 433 498 22,800 -2,580 Descending FlightAware
12:58AM 27.1660 -79.9680 170° South 423 487 21,100 -2,640 Descending FlightAware
12:59AM 27.0800 -79.9510 170° South 412 474 19,200 -2,520 Descending FlightAware
12:59AM 27.0190 -79.9390 170° South 403 464 17,900 -2,460 Descending FlightAware
01:00AM 26.9390 -79.9240 171° South 389 448 16,100 -2,220 Descending FlightAware
01:01AM 26.8680 -79.9100 170° South 375 432 14,800 -1,980 Descending FlightAware
01:01AM 26.7940 -79.8950 170° South 361 415 13,300 -2,100 Descending FlightAware
01:02AM 26.7270 -79.8820 170° South 350 403 11,900 -1,980 Descending FlightAware
01:03AM 26.6660 -79.8710 171° South 338 389 10,700 -1,320 Descending FlightAware
01:03AM 26.6000 -79.8580 170° South 308 354 10,100 -840 Descending FlightAware
01:04AM 26.5670 -79.8520 171° South 295 339 9,800 -1,020 Descending FlightAware
01:04AM 26.5350 -79.8450 169° South 297 342 9,300 -1,320 Descending FlightAware
01:05AM 26.4970 -79.8380 171° South 294 338 8,700 -1,320 Descending FlightAware
01:05AM 26.4570 -79.8490 194° South 283 326 8,000 -1,200 Descending FlightAware
01:05AM 26.4450 -79.8540 200° South 280 322 7,900 -180 Descending FlightAware
01:06AM 26.4150 -79.8690 204° Southwest 263 303 7,900 -480 Level FlightAware
01:06AM 26.3890 -79.8810 202° Southwest 262 302 7,500 -1,440 Descending FlightAware
01:07AM 26.3560 -79.8960 202° Southwest 266 306 6,700 -1,500 Descending FlightAware
01:07AM 26.3360 -79.9060 204° Southwest 264 304 6,400 -1,380 Descending FlightAware
01:07AM 26.3050 -79.9210 203° Southwest 262 302 5,700 -1,500 Descending FlightAware
01:08AM 26.2770 -79.9340 203° Southwest 261 300 5,100 -1,380 Descending FlightAware
01:08AM 26.2420 -79.9500 202° Southwest 258 297 4,400 -1,440 Descending FlightAware
01:09AM 26.2110 -79.9640 202° Southwest 258 297 3,700 -1,500 Descending FlightAware
01:09AM 26.1800 -79.9790 203° Southwest 255 293 3,000 -1,380 Descending FlightAware
01:10AM 26.1540 -79.9910 203° Southwest 250 288 2,500 -900 Descending FlightAware
01:10AM 26.1380 -79.9990 204° Southwest 242 278 2,400 -600 Descending FlightAware
01:10AM 26.1090 -80.0120 202° Southwest 223 257 2,100 -600 Descending FlightAware
01:11AM 26.0870 -80.0230 204° Southwest 209 241 1,900 -540 Descending FlightAware
01:11AM 26.0780 -80.0300 215° Southwest 198 228 1,800 -720 Descending FlightAware
01:11AM 26.0750 -80.0400 252° West 189 217 1,600 -900 Descending FlightAware
01:12AM 26.0760 -80.0660 272° West 147 169 1,200 -840 Descending FlightAware
01:12AM 26.0770 -80.0820 274° West 124 143 900 -600 Descending FlightAware
01:12AM 26.0770 -80.0920 270° West 122 140 800 -600 Descending FlightAware
01:13AM 26.0770 -80.1090 270° West 121 139 500 -660 Descending FlightAware
01:13AM 26.0770 -80.1210 270° West 120 138 300 -300 Descending FlightAware
01:14AM 26.0770 -80.1440 270° West 123 142 200 -180 Descending FlightAware
01:15AM 26.0760 -80.1550 264° West 8 9 -240 Descending FlightAware
01:16AM 26.0750 -80.1510 106° East 9 10  Level FlightAware
01:21AM 26.0667 -80.1500 103° East  Level FlightAware Approximate
01:22AM 26.0726 -80.1527 103° East  Level Estimated